CFG282 HKMO-HTZA
Flight info
| Callsign | CFG282 |
|---|---|
| Flight time | 0h 28m |
| Altitude | 14000 |
| Route | IMSIS2A UVUKO DCT OKPOL DCT IMTOM DCT IMVIV |
| Aircraft | A339/H-SADE1E2E3GHIJ3J5M1P2RWXY/LB2D1 |
Departure
| Time | 2026-04-28 11:45 |
|---|---|
| Airport | Moi International Airport (HKMO) |
Arrival
| Time | 2026-04-28 12:14 |
|---|---|
| Airport | Abeid Amani Karume International Airport (HTZA) |
| Time | Latitude | Longitude | Altitude | Speed | Heading |
|---|---|---|---|---|---|
| 2026-04-28 11:24 | -4.03260 | 39.60159 | 214 ft | 0 kts | 121° |
| 2026-04-28 11:34 | -4.03256 | 39.60152 | 214 ft | 2 kts | 121° |
| 2026-04-28 11:34 | -4.03249 | 39.60139 | 214 ft | 2 kts | 121° |
| 2026-04-28 11:34 | -4.03241 | 39.60126 | 214 ft | 2 kts | 117° |
| 2026-04-28 11:35 | -4.03236 | 39.60112 | 214 ft | 2 kts | 91° |
| 2026-04-28 11:35 | -4.03238 | 39.60097 | 214 ft | 2 kts | 72° |
| 2026-04-28 11:35 | -4.03245 | 39.60083 | 214 ft | 2 kts | 46° |
| 2026-04-28 11:35 | -4.03257 | 39.60075 | 214 ft | 2 kts | 26° |
| 2026-04-28 11:36 | -4.03266 | 39.60070 | 214 ft | 1 kts | 28° |
| 2026-04-28 11:36 | -4.03267 | 39.60070 | 214 ft | 0 kts | 28° |
| 2026-04-28 11:38 | -4.03263 | 39.60072 | 213 ft | 1 kts | 28° |
| 2026-04-28 11:38 | -4.03243 | 39.60083 | 214 ft | 4 kts | 30° |
| 2026-04-28 11:38 | -4.03198 | 39.60109 | 214 ft | 9 kts | 30° |
| 2026-04-28 11:38 | -4.03149 | 39.60137 | 214 ft | 9 kts | 30° |
| 2026-04-28 11:39 | -4.03096 | 39.60142 | 214 ft | 8 kts | 328° |
| 2026-04-28 11:39 | -4.03047 | 39.60097 | 214 ft | 7 kts | 297° |
| 2026-04-28 11:39 | -4.03012 | 39.60039 | 214 ft | 11 kts | 301° |
| 2026-04-28 11:39 | -4.02962 | 39.59959 | 212 ft | 10 kts | 310° |
| 2026-04-28 11:40 | -4.02895 | 39.59957 | 211 ft | 7 kts | 29° |
| 2026-04-28 11:40 | -4.02837 | 39.59988 | 211 ft | 10 kts | 28° |
| 2026-04-28 11:40 | -4.02758 | 39.60031 | 209 ft | 15 kts | 29° |
| 2026-04-28 11:40 | -4.02654 | 39.60089 | 208 ft | 18 kts | 29° |
| 2026-04-28 11:41 | -4.02534 | 39.60157 | 206 ft | 21 kts | 30° |
| 2026-04-28 11:41 | -4.02396 | 39.60234 | 205 ft | 23 kts | 29° |
| 2026-04-28 11:41 | -4.02251 | 39.60315 | 205 ft | 24 kts | 31° |
| 2026-04-28 11:41 | -4.02102 | 39.60401 | 207 ft | 24 kts | 30° |
| 2026-04-28 11:42 | -4.01962 | 39.60480 | 210 ft | 22 kts | 29° |
| 2026-04-28 11:42 | -4.01822 | 39.60557 | 212 ft | 23 kts | 30° |
| 2026-04-28 11:42 | -4.01679 | 39.60637 | 213 ft | 23 kts | 29° |
| 2026-04-28 11:42 | -4.01536 | 39.60715 | 217 ft | 22 kts | 24° |
| 2026-04-28 11:43 | -4.01384 | 39.60717 | 219 ft | 22 kts | 330° |
| 2026-04-28 11:43 | -4.01357 | 39.60627 | 219 ft | 0 kts | 216° |
| 2026-04-28 11:43 | -4.01374 | 39.60614 | 219 ft | 6 kts | 217° |
| 2026-04-28 11:43 | -4.01406 | 39.60592 | 218 ft | 0 kts | 211° |
| 2026-04-28 11:44 | -4.01409 | 39.60590 | 217 ft | 4 kts | 210° |
| 2026-04-28 11:44 | -4.01486 | 39.60548 | 215 ft | 30 kts | 206° |
| 2026-04-28 11:44 | -4.01895 | 39.60318 | 204 ft | 106 kts | 208° |
| 2026-04-28 11:45 | -4.02756 | 39.59833 | 268 ft | 171 kts | 208° |
| 2026-04-28 11:45 | -4.03830 | 39.59213 | 1000 ft | 184 kts | 208° |
| 2026-04-28 11:45 | -4.04932 | 39.58612 | 2030 ft | 183 kts | 206° |
| 2026-04-28 11:45 | -4.06012 | 39.58021 | 2737 ft | 181 kts | 207° |
| 2026-04-28 11:46 | -4.07149 | 39.57393 | 3208 ft | 193 kts | 207° |
| 2026-04-28 11:46 | -4.08354 | 39.56729 | 3754 ft | 201 kts | 206° |
| 2026-04-28 11:46 | -4.09621 | 39.56061 | 4282 ft | 211 kts | 207° |
| 2026-04-28 11:46 | -4.10949 | 39.55315 | 4670 ft | 230 kts | 208° |
| 2026-04-28 11:47 | -4.12416 | 39.54478 | 5107 ft | 248 kts | 208° |
| 2026-04-28 11:47 | -4.13998 | 39.53582 | 5558 ft | 267 kts | 208° |
| 2026-04-28 11:47 | -4.15654 | 39.52647 | 6195 ft | 277 kts | 208° |
| 2026-04-28 11:47 | -4.17338 | 39.51699 | 7004 ft | 280 kts | 208° |
| 2026-04-28 11:48 | -4.19078 | 39.50722 | 7797 ft | 284 kts | 208° |
| 2026-04-28 11:48 | -4.20810 | 39.49753 | 8556 ft | 288 kts | 209° |
| 2026-04-28 11:48 | -4.22572 | 39.48768 | 9295 ft | 293 kts | 208° |
| 2026-04-28 11:48 | -4.24399 | 39.47866 | 10018 ft | 296 kts | 198° |
| 2026-04-28 11:49 | -4.26470 | 39.47451 | 10552 ft | 308 kts | 182° |
| 2026-04-28 11:49 | -4.28691 | 39.47511 | 10944 ft | 325 kts | 176° |
| 2026-04-28 11:49 | -4.30967 | 39.47662 | 11530 ft | 334 kts | 175° |
| 2026-04-28 11:49 | -4.33305 | 39.47826 | 12267 ft | 338 kts | 175° |
| 2026-04-28 11:50 | -4.35665 | 39.47985 | 12994 ft | 341 kts | 175° |
| 2026-04-28 11:50 | -4.38068 | 39.48140 | 13498 ft | 344 kts | 175° |
| 2026-04-28 11:50 | -4.40480 | 39.48291 | 13782 ft | 344 kts | 176° |
| 2026-04-28 11:50 | -4.42855 | 39.48438 | 13803 ft | 344 kts | 176° |
| 2026-04-28 11:51 | -4.45267 | 39.48586 | 13822 ft | 343 kts | 176° |
| 2026-04-28 11:51 | -4.47658 | 39.48732 | 13826 ft | 343 kts | 176° |
| 2026-04-28 11:51 | -4.50067 | 39.48877 | 13823 ft | 343 kts | 176° |
| 2026-04-28 11:51 | -4.52473 | 39.49021 | 13828 ft | 343 kts | 176° |
| 2026-04-28 11:52 | -4.54880 | 39.49166 | 13831 ft | 344 kts | 176° |
| 2026-04-28 11:52 | -4.57278 | 39.49310 | 13822 ft | 344 kts | 176° |
| 2026-04-28 11:52 | -4.59683 | 39.49455 | 13825 ft | 344 kts | 176° |
| 2026-04-28 11:52 | -4.62085 | 39.49600 | 13833 ft | 345 kts | 176° |
| 2026-04-28 11:53 | -4.64518 | 39.49747 | 13829 ft | 345 kts | 176° |
| 2026-04-28 11:53 | -4.66933 | 39.49891 | 13825 ft | 345 kts | 177° |
| 2026-04-28 11:53 | -4.69320 | 39.49889 | 13826 ft | 345 kts | 182° |
| 2026-04-28 11:53 | -4.71743 | 39.49644 | 13813 ft | 344 kts | 188° |
| 2026-04-28 11:54 | -4.74083 | 39.49169 | 13815 ft | 344 kts | 193° |
| 2026-04-28 11:54 | -4.76441 | 39.48593 | 13825 ft | 343 kts | 193° |
| 2026-04-28 11:54 | -4.78751 | 39.48013 | 13828 ft | 342 kts | 194° |
| 2026-04-28 11:54 | -4.81090 | 39.47423 | 13826 ft | 342 kts | 194° |
| 2026-04-28 11:55 | -4.83415 | 39.46840 | 13822 ft | 343 kts | 194° |
| 2026-04-28 11:55 | -4.85718 | 39.46263 | 13819 ft | 343 kts | 193° |
| 2026-04-28 11:55 | -4.88073 | 39.45674 | 13818 ft | 343 kts | 193° |
| 2026-04-28 11:55 | -4.90386 | 39.45098 | 13816 ft | 344 kts | 193° |
| 2026-04-28 11:56 | -4.92741 | 39.44512 | 13817 ft | 344 kts | 193° |
| 2026-04-28 11:56 | -4.95056 | 39.43936 | 13815 ft | 345 kts | 193° |
| 2026-04-28 11:56 | -4.97396 | 39.43354 | 13816 ft | 345 kts | 193° |
| 2026-04-28 11:56 | -4.99749 | 39.42768 | 13822 ft | 345 kts | 193° |
| 2026-04-28 11:57 | -5.02087 | 39.42185 | 13816 ft | 344 kts | 193° |
| 2026-04-28 11:57 | -5.04415 | 39.41605 | 13815 ft | 343 kts | 193° |
| 2026-04-28 11:57 | -5.06741 | 39.41027 | 13812 ft | 343 kts | 193° |
| 2026-04-28 11:57 | -5.09066 | 39.40450 | 13817 ft | 343 kts | 193° |
| 2026-04-28 11:58 | -5.11388 | 39.39873 | 13819 ft | 343 kts | 193° |
| 2026-04-28 11:58 | -5.13738 | 39.39287 | 13821 ft | 343 kts | 193° |
| 2026-04-28 11:58 | -5.16066 | 39.38707 | 13815 ft | 343 kts | 193° |
| 2026-04-28 11:58 | -5.18390 | 39.38128 | 13815 ft | 344 kts | 193° |
| 2026-04-28 11:59 | -5.20728 | 39.37546 | 13820 ft | 344 kts | 193° |
| 2026-04-28 11:59 | -5.23065 | 39.36965 | 13818 ft | 345 kts | 193° |
| 2026-04-28 11:59 | -5.25407 | 39.36380 | 13819 ft | 345 kts | 193° |
| 2026-04-28 11:59 | -5.27741 | 39.35799 | 13817 ft | 345 kts | 193° |
| 2026-04-28 12:00 | -5.30077 | 39.35216 | 13815 ft | 346 kts | 193° |
| 2026-04-28 12:00 | -5.32445 | 39.34625 | 13811 ft | 346 kts | 193° |
| 2026-04-28 12:00 | -5.34782 | 39.34044 | 13815 ft | 345 kts | 193° |
| 2026-04-28 12:00 | -5.37122 | 39.33461 | 13777 ft | 345 kts | 193° |
| 2026-04-28 12:01 | -5.39448 | 39.32883 | 13597 ft | 342 kts | 193° |
| 2026-04-28 12:01 | -5.41760 | 39.32307 | 13367 ft | 336 kts | 194° |
| 2026-04-28 12:01 | -5.44038 | 39.31739 | 13128 ft | 330 kts | 194° |
| 2026-04-28 12:01 | -5.46244 | 39.31189 | 12902 ft | 325 kts | 194° |
| 2026-04-28 12:02 | -5.48431 | 39.30642 | 12672 ft | 321 kts | 194° |
| 2026-04-28 12:02 | -5.50617 | 39.30096 | 12438 ft | 316 kts | 193° |
| 2026-04-28 12:02 | -5.52748 | 39.29564 | 12207 ft | 312 kts | 193° |
| 2026-04-28 12:02 | -5.54870 | 39.29035 | 11966 ft | 308 kts | 194° |
| 2026-04-28 12:03 | -5.56945 | 39.28519 | 11725 ft | 305 kts | 194° |
| 2026-04-28 12:03 | -5.59017 | 39.28001 | 11486 ft | 301 kts | 194° |
| 2026-04-28 12:03 | -5.61041 | 39.27497 | 11253 ft | 299 kts | 194° |
| 2026-04-28 12:03 | -5.63087 | 39.26985 | 11019 ft | 298 kts | 194° |
| 2026-04-28 12:04 | -5.65106 | 39.26482 | 10791 ft | 297 kts | 194° |
| 2026-04-28 12:04 | -5.67111 | 39.25982 | 10551 ft | 296 kts | 193° |
| 2026-04-28 12:04 | -5.69119 | 39.25480 | 10312 ft | 295 kts | 193° |
| 2026-04-28 12:04 | -5.71121 | 39.24981 | 10087 ft | 294 kts | 193° |
| 2026-04-28 12:05 | -5.73134 | 39.24479 | 9850 ft | 293 kts | 193° |
| 2026-04-28 12:05 | -5.75123 | 39.23982 | 9594 ft | 292 kts | 193° |
| 2026-04-28 12:05 | -5.77137 | 39.23479 | 9131 ft | 298 kts | 193° |
| 2026-04-28 12:05 | -5.79171 | 39.22971 | 8213 ft | 309 kts | 193° |
| 2026-04-28 12:06 | -5.81237 | 39.22454 | 7612 ft | 301 kts | 193° |
| 2026-04-28 12:06 | -5.83256 | 39.21949 | 7138 ft | 290 kts | 193° |
| 2026-04-28 12:06 | -5.84910 | 39.21536 | 6679 ft | 284 kts | 193° |
| 2026-04-28 12:06 | -5.85842 | 39.21303 | 6475 ft | 279 kts | 193° |
| 2026-04-28 12:07 | -5.87716 | 39.20834 | 5977 ft | 273 kts | 193° |
| 2026-04-28 12:07 | -5.89573 | 39.20371 | 5404 ft | 270 kts | 193° |
| 2026-04-28 12:07 | -5.91379 | 39.19922 | 4838 ft | 268 kts | 191° |
| 2026-04-28 12:07 | -5.93233 | 39.19665 | 4260 ft | 264 kts | 180° |
| 2026-04-28 12:08 | -5.95059 | 39.19744 | 3702 ft | 261 kts | 173° |
| 2026-04-28 12:08 | -5.96882 | 39.19926 | 3153 ft | 258 kts | 172° |
| 2026-04-28 12:08 | -5.98656 | 39.20119 | 2631 ft | 255 kts | 172° |
| 2026-04-28 12:08 | -6.00386 | 39.20301 | 2504 ft | 239 kts | 173° |
| 2026-04-28 12:09 | -6.02002 | 39.20467 | 2498 ft | 222 kts | 173° |
| 2026-04-28 12:09 | -6.03464 | 39.20612 | 2488 ft | 200 kts | 172° |
| 2026-04-28 12:09 | -6.04810 | 39.20746 | 2553 ft | 181 kts | 172° |
| 2026-04-28 12:09 | -6.06045 | 39.20869 | 2557 ft | 174 kts | 173° |
| 2026-04-28 12:10 | -6.07252 | 39.20991 | 2561 ft | 174 kts | 172° |
| 2026-04-28 12:10 | -6.08485 | 39.21115 | 2417 ft | 174 kts | 173° |
| 2026-04-28 12:10 | -6.09693 | 39.21236 | 2196 ft | 173 kts | 173° |
| 2026-04-28 12:10 | -6.10893 | 39.21356 | 1980 ft | 172 kts | 173° |
| 2026-04-28 12:11 | -6.12070 | 39.21473 | 1767 ft | 166 kts | 173° |
| 2026-04-28 12:11 | -6.13210 | 39.21587 | 1545 ft | 159 kts | 173° |
| 2026-04-28 12:11 | -6.14288 | 39.21694 | 1342 ft | 153 kts | 172° |
| 2026-04-28 12:11 | -6.15338 | 39.21801 | 1132 ft | 148 kts | 174° |
| 2026-04-28 12:12 | -6.16357 | 39.21912 | 889 ft | 146 kts | 173° |
| 2026-04-28 12:12 | -6.17359 | 39.22016 | 693 ft | 144 kts | 174° |
| 2026-04-28 12:12 | -6.18377 | 39.22114 | 586 ft | 146 kts | 175° |
| 2026-04-28 12:12 | -6.19394 | 39.22208 | 453 ft | 146 kts | 174° |
| 2026-04-28 12:13 | -6.20417 | 39.22305 | 234 ft | 145 kts | 173° |
| 2026-04-28 12:13 | -6.21418 | 39.22410 | 83 ft | 144 kts | 175° |
| 2026-04-28 12:13 | -6.22355 | 39.22498 | 64 ft | 115 kts | 174° |
| 2026-04-28 12:13 | -6.22973 | 39.22562 | 63 ft | 62 kts | 174° |
| 2026-04-28 12:14 | -6.23324 | 39.22598 | 65 ft | 43 kts | 175° |
| 2026-04-28 12:14 | -6.23621 | 39.22624 | 62 ft | 40 kts | 173° |
| 2026-04-28 12:14 | -6.23785 | 39.22624 | 62 ft | 15 kts | 220° |
| 2026-04-28 12:14 | -6.23806 | 39.22545 | 64 ft | 11 kts | 260° |
| 2026-04-28 12:15 | -6.23785 | 39.22481 | 65 ft | 11 kts | 330° |
| 2026-04-28 12:15 | -6.23685 | 39.22466 | 65 ft | 18 kts | 355° |
| 2026-04-28 12:15 | -6.23535 | 39.22451 | 66 ft | 24 kts | 353° |
| 2026-04-28 12:15 | -6.23345 | 39.22428 | 66 ft | 28 kts | 355° |
| 2026-04-28 12:16 | -6.23149 | 39.22411 | 66 ft | 27 kts | 354° |
| 2026-04-28 12:16 | -6.22955 | 39.22392 | 65 ft | 27 kts | 354° |
| 2026-04-28 12:16 | -6.22764 | 39.22372 | 64 ft | 26 kts | 354° |
| 2026-04-28 12:16 | -6.22583 | 39.22355 | 64 ft | 25 kts | 354° |
| 2026-04-28 12:17 | -6.22445 | 39.22324 | 65 ft | 13 kts | 320° |
| 2026-04-28 12:17 | -6.22424 | 39.22269 | 65 ft | 5 kts | 294° |
| 2026-04-28 12:17 | -6.22386 | 39.22245 | 65 ft | 7 kts | 344° |
| 2026-04-28 12:17 | -6.22341 | 39.22238 | 65 ft | 1 kts | 352° |
| 2026-04-28 12:18 | -6.22338 | 39.22237 | 65 ft | 0 kts | 352° |